Time;durP1;ratioP1;P1;durP2;ratioP2;P2;SDS_P1;SDS_P2;PMS_P1;PMS_P2;Temp;Humidity;BMP_temperature;BMP_pressure;BME280_temperature;BME280_humidity;BME280_pressure;Samples;Min_cycle;Max_cycle;Signal;HPM_P1;HPM_P2
2023/11/29 00:01:31;;;;;;;7.25;4.07;;;;;;;6.01;85.65;92331.91;5062572;28;20071;-72
2023/11/29 00:03:56;;;;;;;7.28;4.05;;;;;;;5.99;86.11;92336.75;5062640;28;20052;-72
2023/11/29 00:06:22;;;;;;;8.65;4.82;;;;;;;5.99;86.38;92339.41;5062529;28;20345;-72
2023/11/29 00:08:48;;;;;;;10.00;4.60;;;;;;;5.95;86.83;92335.84;5062317;28;20029;-72
2023/11/29 00:11:13;;;;;;;13.45;5.10;;;;;;;5.95;87.08;92327.91;5062661;28;20028;-72
2023/11/29 00:13:39;;;;;;;10.70;4.72;;;;;;;5.99;87.01;92345.44;5065776;28;20033;-72
2023/11/29 00:16:04;;;;;;;8.43;3.90;;;;;;;5.95;86.69;92370.22;5066640;28;20280;-72
2023/11/29 00:18:30;;;;;;;8.60;4.55;;;;;;;5.85;87.52;92386.41;5066692;28;20032;-72
2023/11/29 00:21:00;;;;;;;8.50;3.72;;;;;;;5.79;88.11;92377.88;5066651;28;20095;-71
2023/11/29 00:23:25;;;;;;;7.65;4.55;;;;;;;5.82;88.80;92382.53;5066253;28;20091;-73
2023/11/29 00:25:51;;;;;;;10.60;4.78;;;;;;;5.79;89.35;92389.22;5066831;28;20302;-72
2023/11/29 00:28:16;;;;;;;10.40;4.70;;;;;;;5.82;89.48;92396.53;5066578;28;20326;-72
2023/11/29 00:30:41;;;;;;;7.50;3.83;;;;;;;5.86;89.36;92395.88;5066512;28;20020;-72
2023/11/29 00:33:07;;;;;;;9.85;4.65;;;;;;;5.93;89.07;92401.47;5066434;28;20027;-74
2023/11/29 00:35:32;;;;;;;9.00;4.95;;;;;;;5.97;88.99;92405.06;5066499;28;20199;-74
2023/11/29 00:37:58;;;;;;;8.95;4.22;;;;;;;5.98;88.11;92404.75;5066388;28;20374;-74
2023/11/29 00:40:23;;;;;;;12.23;4.72;;;;;;;5.93;88.10;92409.41;5066477;28;20021;-74
2023/11/29 00:42:49;;;;;;;4.53;3.05;;;;;;;5.88;86.72;92418.28;5066317;28;20025;-73
2023/11/29 00:45:14;;;;;;;6.03;3.25;;;;;;;5.87;86.97;92421.25;5066418;28;20092;-74
2023/11/29 00:47:40;;;;;;;4.88;2.30;;;;;;;5.80;86.27;92438.38;5066467;28;20066;-74
2023/11/29 00:50:06;;;;;;;10.18;3.90;;;;;;;5.71;86.71;92448.22;5066457;28;20073;-73
2023/11/29 00:52:32;;;;;;;8.32;4.93;;;;;;;5.65;87.52;92462.69;5066156;28;20032;-73
2023/11/29 00:54:57;;;;;;;7.90;4.13;;;;;;;5.59;88.71;92456.03;5066095;28;20025;-73
2023/11/29 00:57:23;;;;;;;9.45;3.65;;;;;;;5.51;88.92;92462.88;5065550;28;20047;-75
2023/11/29 00:59:48;;;;;;;6.13;2.42;;;;;;;5.37;89.42;92447.22;5065934;28;20362;-74
2023/11/29 01:02:14;;;;;;;6.30;2.75;;;;;;;5.35;89.19;92467.13;5065713;28;20043;-73
2023/11/29 01:04:39;;;;;;;3.97;2.15;;;;;;;5.28;89.69;92475.53;5066054;28;20319;-75
2023/11/29 01:07:05;;;;;;;3.92;2.05;;;;;;;5.24;90.55;92471.97;5065703;28;20307;-74
2023/11/29 01:09:30;;;;;;;3.78;1.80;;;;;;;5.22;90.47;92474.13;5065643;28;20028;-75
2023/11/29 01:11:56;;;;;;;2.92;1.58;;;;;;;5.20;90.69;92484.25;5065561;28;20098;-75
2023/11/29 01:14:21;;;;;;;4.47;1.33;;;;;;;5.15;90.30;92487.81;5065722;28;20213;-74
2023/11/29 01:16:47;;;;;;;1.63;0.90;;;;;;;5.13;90.56;92483.91;5065664;28;20274;-75
2023/11/29 01:19:13;;;;;;;1.20;0.80;;;;;;;5.08;90.35;92487.50;5065632;28;20037;-75
2023/11/29 01:21:38;;;;;;;1.55;1.00;;;;;;;5.08;90.51;92490.16;5065489;28;20029;-75
2023/11/29 01:24:07;;;;;;;2.08;0.90;;;;;;;5.10;90.35;92487.19;5064738;28;20311;-72
2023/11/29 01:26:33;;;;;;;3.92;0.80;;;;;;;5.05;90.48;92500.53;5065488;28;20055;-73
2023/11/29 01:28:59;;;;;;;1.55;0.82;;;;;;;4.94;90.65;92498.22;5065497;28;20040;-73
2023/11/29 01:31:28;;;;;;;1.77;0.70;;;;;;;4.87;90.84;92508.47;5065268;28;20099;-73
2023/11/29 01:33:54;;;;;;;0.75;0.50;;;;;;;4.75;90.96;92506.44;5065061;28;20021;-73
2023/11/29 01:36:19;;;;;;;0.32;0.30;;;;;;;4.65;90.59;92516.53;5065054;28;20071;-73
2023/11/29 01:38:45;;;;;;;0.95;0.40;;;;;;;4.58;90.63;92520.41;5065109;28;20087;-73
2023/11/29 01:41:10;;;;;;;1.17;0.55;;;;;;;4.47;91.68;92527.03;5065200;28;20024;-73
2023/11/29 01:43:36;;;;;;;0.65;0.30;;;;;;;4.38;91.60;92529.66;5065244;28;20100;-73
2023/11/29 01:46:02;;;;;;;0.20;0.20;;;;;;;4.31;91.15;92533.84;5064970;28;20009;-73
2023/11/29 01:48:28;;;;;;;0.30;0.20;;;;;;;4.28;90.21;92540.50;5064908;28;20303;-73
2023/11/29 01:50:54;;;;;;;1.58;0.50;;;;;;;4.17;90.98;92550.56;5064689;28;20096;-75
2023/11/29 01:53:23;;;;;;;2.08;0.30;;;;;;;4.07;90.97;92553.47;5064746;28;20044;-74
2023/11/29 01:55:52;;;;;;;0.88;0.38;;;;;;;3.93;91.42;92543.00;5064609;28;20290;-75
2023/11/29 01:58:18;;;;;;;0.30;0.20;;;;;;;3.84;91.70;92549.31;5064658;28;20230;-75
2023/11/29 02:00:44;;;;;;;0.17;0.17;;;;;;;3.79;92.01;92553.63;5064702;28;20096;-76
2023/11/29 02:03:10;;;;;;;0.20;0.20;;;;;;;3.72;92.90;92558.53;5064871;28;20032;-75
2023/11/29 02:05:36;;;;;;;0.35;0.30;;;;;;;3.74;93.93;92552.97;5064707;28;20024;-72
2023/11/29 02:08:01;;;;;;;0.25;0.20;;;;;;;3.73;93.72;92554.84;5063388;28;20212;-72
2023/11/29 02:10:27;;;;;;;1.95;0.32;;;;;;;3.75;93.44;92557.94;5064541;28;20024;-72
2023/11/29 02:12:53;;;;;;;0.47;0.35;;;;;;;3.80;93.17;92557.81;5064355;28;20218;-73
2023/11/29 02:15:18;;;;;;;0.32;0.22;;;;;;;3.84;92.50;92551.94;5064638;28;20017;-74
2023/11/29 02:17:44;;;;;;;1.00;0.40;;;;;;;3.84;91.81;92557.22;5064424;28;20021;-73
2023/11/29 02:20:13;;;;;;;1.33;0.40;;;;;;;3.87;91.21;92556.59;5064483;28;20265;-74
2023/11/29 02:22:40;;;;;;;3.13;1.00;;;;;;;3.92;91.25;92543.31;5064311;28;20054;-73
2023/11/29 02:25:06;;;;;;;1.50;0.60;;;;;;;3.98;91.68;92548.13;5064370;28;20253;-72
2023/11/29 02:27:31;;;;;;;3.20;0.85;;;;;;;3.99;91.65;92548.94;5064269;28;20060;-73
2023/11/29 02:29:57;;;;;;;1.00;0.40;;;;;;;3.94;91.89;92552.47;5064188;28;20068;-73
2023/11/29 02:32:22;;;;;;;1.58;0.57;;;;;;;3.95;92.17;92553.25;5062837;28;20029;-74
2023/11/29 02:34:48;;;;;;;0.40;0.32;;;;;;;3.93;92.03;92555.38;5064122;28;20088;-74
2023/11/29 02:37:13;;;;;;;1.45;0.60;;;;;;;3.81;92.70;92559.38;5062966;28;20024;-74
2023/11/29 02:39:39;;;;;;;1.25;0.70;;;;;;;3.75;92.89;92552.69;5064199;28;20039;-74
2023/11/29 02:42:05;;;;;;;2.03;0.80;;;;;;;3.64;94.05;92548.72;5063777;28;20036;-74
2023/11/29 02:44:30;;;;;;;1.67;0.60;;;;;;;3.54;94.63;92562.97;5063852;28;20127;-73
2023/11/29 02:46:56;;;;;;;2.22;0.70;;;;;;;3.50;95.61;92567.25;5063769;28;20028;-74
2023/11/29 02:49:23;;;;;;;1.55;0.80;;;;;;;3.46;96.22;92578.69;5064122;28;20036;-74
2023/11/29 02:51:50;;;;;;;1.08;0.60;;;;;;;3.31;97.62;92585.84;5063786;28;20083;-74
2023/11/29 02:54:16;;;;;;;1.52;1.00;;;;;;;3.38;97.94;92567.81;5063733;28;20036;-74
2023/11/29 02:56:41;;;;;;;2.35;0.90;;;;;;;3.29;98.18;92572.22;5063499;28;20048;-74
2023/11/29 02:59:07;;;;;;;1.30;0.70;;;;;;;3.26;97.65;92569.38;5063836;28;20044;-74
2023/11/29 03:01:33;;;;;;;1.50;0.63;;;;;;;3.32;96.16;92576.13;5063571;28;20367;-74
2023/11/29 03:03:58;;;;;;;0.95;0.60;;;;;;;3.32;94.25;92566.38;5063311;28;20032;-73
2023/11/29 03:06:24;;;;;;;0.70;0.47;;;;;;;3.40;92.72;92563.00;5063738;28;20025;-73
2023/11/29 03:08:49;;;;;;;0.38;0.38;;;;;;;3.44;91.28;92570.31;5063495;28;20074;-73
2023/11/29 03:11:15;;;;;;;0.30;0.30;;;;;;;3.50;91.70;92569.91;5063499;28;20048;-73
2023/11/29 03:13:40;;;;;;;0.57;0.40;;;;;;;3.49;90.42;92581.50;5063592;28;20052;-73
2023/11/29 03:16:06;;;;;;;0.73;0.50;;;;;;;3.49;89.69;92578.09;5063335;28;20025;-73
2023/11/29 03:18:32;;;;;;;0.55;0.40;;;;;;;3.56;89.92;92589.78;5063223;28;20031;-74
2023/11/29 03:20:58;;;;;;;0.35;0.35;;;;;;;3.63;89.74;92578.81;5063435;28;20025;-76
2023/11/29 03:23:23;;;;;;;0.32;0.32;;;;;;;3.62;89.86;92579.88;5063186;28;20032;-76
2023/11/29 03:25:49;;;;;;;0.52;0.40;;;;;;;3.64;89.74;92584.84;5063131;28;20032;-76
2023/11/29 03:28:14;;;;;;;0.88;0.40;;;;;;;3.64;89.98;92575.06;5063129;28;20223;-76
2023/11/29 03:30:39;;;;;;;0.75;0.50;;;;;;;3.67;89.96;92574.50;5063388;28;20021;-76
2023/11/29 03:33:05;;;;;;;2.95;0.50;;;;;;;3.67;90.12;92574.50;5063167;28;20037;-75
2023/11/29 03:35:30;;;;;;;1.85;0.40;;;;;;;3.68;90.08;92581.31;5062838;28;20027;-74
2023/11/29 03:37:56;;;;;;;1.77;0.70;;;;;;;3.66;89.86;92582.69;5063070;28;20028;-74
2023/11/29 03:40:21;;;;;;;0.93;0.60;;;;;;;3.67;89.83;92579.00;5062994;28;20094;-76
2023/11/29 03:42:47;;;;;;;1.38;0.75;;;;;;;3.71;89.21;92583.34;5062751;28;20028;-76
2023/11/29 03:45:12;;;;;;;1.25;0.63;;;;;;;3.76;89.30;92577.94;5062848;28;20052;-76
2023/11/29 03:47:38;;;;;;;0.80;0.50;;;;;;;3.79;89.61;92582.63;5062536;28;20059;-74
2023/11/29 03:50:03;;;;;;;0.93;0.50;;;;;;;3.75;89.71;92581.66;5062852;28;20278;-75
2023/11/29 03:52:29;;;;;;;1.23;0.77;;;;;;;3.68;89.65;92581.31;5062586;28;20075;-75
2023/11/29 03:54:54;;;;;;;0.70;0.40;;;;;;;3.59;89.13;92593.66;5062603;28;20028;-75
2023/11/29 03:57:20;;;;;;;3.22;0.50;;;;;;;3.56;89.54;92581.06;5062501;28;20116;-75
2023/11/29 03:59:46;;;;;;;0.93;0.50;;;;;;;3.55;90.03;92592.72;5062523;28;20115;-74
2023/11/29 04:02:12;;;;;;;1.30;0.80;;;;;;;3.52;89.70;92594.09;5062528;28;20035;-75
2023/11/29 04:04:40;;;;;;;0.98;0.52;;;;;;;3.46;90.57;92599.75;5062617;28;20024;-75
2023/11/29 04:07:06;;;;;;;1.10;0.57;;;;;;;3.54;88.80;92601.66;5062592;28;20021;-75
2023/11/29 04:09:32;;;;;;;1.00;0.50;;;;;;;3.56;88.83;92594.25;5062714;28;20341;-75
2023/11/29 04:11:58;;;;;;;1.75;0.73;;;;;;;3.58;89.76;92595.53;5062707;28;20073;-75
2023/11/29 04:14:23;;;;;;;1.75;0.75;;;;;;;3.59;89.85;92593.66;5062550;28;20348;-75
2023/11/29 04:16:49;;;;;;;2.60;0.85;;;;;;;3.55;90.20;92596.09;5062202;28;20053;-75
2023/11/29 04:19:14;;;;;;;1.27;0.82;;;;;;;3.46;91.30;92600.56;5062628;28;20079;-75
2023/11/29 04:21:40;;;;;;;3.50;1.38;;;;;;;3.46;91.26;92600.56;5062852;28;20219;-75
2023/11/29 04:24:06;;;;;;;1.73;0.95;;;;;;;3.44;90.82;92597.44;5062743;28;20056;-73
2023/11/29 04:26:33;;;;;;;1.73;0.90;;;;;;;3.41;89.74;92598.78;5062350;28;20017;-73
2023/11/29 04:29:01;;;;;;;3.63;1.10;;;;;;;3.34;89.97;92611.63;5062271;28;20024;-73
2023/11/29 04:31:27;;;;;;;1.92;1.00;;;;;;;3.32;89.87;92605.88;5062490;28;20025;-73
2023/11/29 04:33:53;;;;;;;3.85;1.20;;;;;;;3.30;90.40;92613.28;5062383;28;20017;-73
2023/11/29 04:36:19;;;;;;;8.10;3.15;;;;;;;3.23;91.02;92618.19;5062086;28;20024;-73
2023/11/29 04:38:45;;;;;;;2.53;1.27;;;;;;;3.24;91.15;92613.69;5062447;28;20031;-73
2023/11/29 04:41:11;;;;;;;5.22;1.92;;;;;;;3.17;91.53;92627.25;5062406;28;20021;-75
2023/11/29 04:43:36;;;;;;;5.35;2.15;;;;;;;3.19;91.88;92628.50;5062282;28;20021;-75
2023/11/29 04:46:02;;;;;;;2.97;1.50;;;;;;;3.10;92.35;92629.53;5062263;28;20021;-75
2023/11/29 04:48:28;;;;;;;4.43;1.83;;;;;;;3.08;92.94;92626.41;5062291;28;20024;-75
2023/11/29 04:50:54;;;;;;;4.20;1.60;;;;;;;3.08;93.26;92631.69;5062180;28;20039;-75
2023/11/29 04:53:19;;;;;;;4.05;1.33;;;;;;;3.13;93.23;92636.81;5062126;28;20025;-75
2023/11/29 04:55:45;;;;;;;3.53;1.40;;;;;;;3.21;93.58;92625.59;5061866;28;20045;-73
2023/11/29 04:58:12;;;;;;;4.18;1.50;;;;;;;3.29;93.76;92621.47;5062259;28;20056;-72
2023/11/29 05:00:38;;;;;;;3.42;1.52;;;;;;;3.38;93.42;92631.00;5064938;28;20250;-75
2023/11/29 05:03:04;;;;;;;9.95;1.80;;;;;;;3.48;92.98;92639.75;5065743;28;20070;-76
2023/11/29 05:05:30;;;;;;;3.92;2.15;;;;;;;3.52;92.40;92645.97;5065682;28;20029;-76
2023/11/29 05:07:55;;;;;;;5.00;1.92;;;;;;;3.60;91.89;92643.44;5065235;28;20025;-73
2023/11/29 05:10:21;;;;;;;5.75;2.28;;;;;;;3.65;91.33;92639.13;5065628;28;20044;-74
2023/11/29 05:12:46;;;;;;;5.35;1.55;;;;;;;3.70;90.95;92645.03;5065531;28;20362;-74
2023/11/29 05:15:12;;;;;;;4.68;1.58;;;;;;;3.75;90.41;92647.56;5064647;28;20385;-73
2023/11/29 05:17:37;;;;;;;5.07;2.03;;;;;;;3.80;89.98;92644.78;5065626;28;20108;-73
2023/11/29 05:20:03;;;;;;;4.13;1.77;;;;;;;3.80;89.79;92642.16;5065305;28;20223;-76
2023/11/29 05:22:29;;;;;;;3.22;1.30;;;;;;;3.86;89.72;92660.50;5065369;28;20330;-75
2023/11/29 05:24:54;;;;;;;3.45;1.35;;;;;;;3.85;88.57;92649.19;5065471;28;20036;-75
2023/11/29 05:27:20;;;;;;;3.35;1.30;;;;;;;3.76;88.15;92649.09;5065356;28;20024;-74
2023/11/29 05:29:46;;;;;;;1.73;1.13;;;;;;;3.71;88.25;92653.72;5065306;28;20029;-74
2023/11/29 05:32:12;;;;;;;2.97;1.38;;;;;;;3.71;88.25;92659.78;5065398;28;20017;-75
2023/11/29 05:34:38;;;;;;;2.53;1.48;;;;;;;3.71;88.37;92653.72;5065237;28;20341;-74
2023/11/29 05:37:03;;;;;;;3.42;1.30;;;;;;;3.72;88.62;92658.69;5065142;28;20056;-74
2023/11/29 05:39:29;;;;;;;3.75;1.85;;;;;;;3.77;88.38;92658.59;5064860;28;20258;-73
2023/11/29 05:41:55;;;;;;;3.45;1.38;;;;;;;3.75;87.95;92662.59;5065183;28;20025;-73
2023/11/29 05:44:57;;;;;;;3.08;1.38;;;;;;;3.70;87.95;92662.72;5065105;28;20084;-73
2023/11/29 05:47:23;;;;;;;2.28;1.10;;;;;;;3.55;88.40;92661.97;5065271;28;20017;-75
2023/11/29 05:49:49;;;;;;;3.53;1.67;;;;;;;3.50;88.19;92659.47;5065418;28;20071;-74
2023/11/29 05:52:14;;;;;;;2.20;1.27;;;;;;;3.55;88.81;92666.47;5064884;28;20040;-74
2023/11/29 05:54:40;;;;;;;2.80;1.30;;;;;;;3.55;88.75;92672.50;5064932;28;20025;-75
2023/11/29 05:57:05;;;;;;;2.28;1.23;;;;;;;3.56;88.38;92670.66;5064636;28;20060;-73
2023/11/29 05:59:31;;;;;;;3.90;1.08;;;;;;;3.61;87.44;92660.00;5064653;28;20074;-73
2023/11/29 06:01:58;;;;;;;2.65;1.10;;;;;;;3.64;87.22;92672.56;5064661;28;20275;-73
2023/11/29 06:04:24;;;;;;;2.83;1.17;;;;;;;3.58;86.69;92681.66;5064460;28;20081;-72
2023/11/29 06:06:49;;;;;;;2.88;1.33;;;;;;;3.60;86.83;92684.78;5064664;28;20040;-72
2023/11/29 06:09:14;;;;;;;2.72;1.50;;;;;;;3.65;86.35;92684.69;5064567;28;20031;-74
2023/11/29 06:11:40;;;;;;;3.80;1.38;;;;;;;3.64;85.72;92684.97;5064569;28;20021;-74
2023/11/29 06:14:06;;;;;;;2.47;1.50;;;;;;;3.72;85.66;92684.28;5064495;28;20079;-75
2023/11/29 06:16:31;;;;;;;3.75;1.90;;;;;;;3.81;85.64;92693.81;5064517;28;20033;-75
2023/11/29 06:18:58;;;;;;;2.75;1.60;;;;;;;3.89;85.65;92688.88;5064240;28;20029;-75
2023/11/29 06:21:24;;;;;;;3.25;1.90;;;;;;;3.94;85.14;92694.03;5064180;28;20029;-77
2023/11/29 06:23:49;;;;;;;7.90;4.30;;;;;;;4.01;85.87;92683.88;5064279;28;20040;-77
2023/11/29 06:26:15;;;;;;;6.00;3.20;;;;;;;4.07;86.13;92679.22;5064466;28;20092;-77
2023/11/29 06:28:41;;;;;;;11.73;3.45;;;;;;;4.16;86.44;92678.22;5064401;28;20041;-77
2023/11/29 06:31:07;;;;;;;13.00;4.45;;;;;;;4.24;86.52;92676.72;5064017;28;20029;-75
2023/11/29 06:33:32;;;;;;;10.90;5.30;;;;;;;4.30;86.60;92691.34;5063726;28;20017;-75
2023/11/29 06:36:01;;;;;;;13.48;6.68;;;;;;;4.38;86.73;92689.81;5063634;28;20341;-75
2023/11/29 06:38:27;;;;;;;12.05;6.57;;;;;;;4.45;86.69;92708.63;5063623;28;20029;-74
2023/11/29 06:40:57;;;;;;;15.10;7.07;;;;;;;4.52;86.77;92711.63;5063799;28;20081;-73
2023/11/29 06:43:23;;;;;;;11.32;5.97;;;;;;;4.58;86.57;92712.25;5063876;28;20227;-76
2023/11/29 06:45:49;;;;;;;11.88;5.53;;;;;;;4.62;86.29;92721.94;5063758;28;20017;-73
2023/11/29 06:48:15;;;;;;;8.35;4.45;;;;;;;4.70;86.05;92730.16;5063769;28;20023;-74
2023/11/29 06:50:40;;;;;;;6.55;3.08;;;;;;;4.74;85.61;92736.41;5063861;28;20021;-73
2023/11/29 06:53:07;;;;;;;8.25;3.22;;;;;;;4.79;84.94;92738.91;5063697;28;20045;-74
2023/11/29 06:55:32;;;;;;;8.00;3.47;;;;;;;4.79;84.86;92736.28;5062982;28;20021;-75
2023/11/29 06:57:58;;;;;;;6.45;3.40;;;;;;;4.90;84.30;92750.75;5063427;28;20081;-74
2023/11/29 07:00:24;;;;;;;8.65;3.75;;;;;;;4.96;83.92;92743.50;5063510;28;20027;-74
2023/11/29 07:02:49;;;;;;;5.57;3.78;;;;;;;5.01;83.74;92741.50;5063326;28;20032;-76
2023/11/29 07:05:15;;;;;;;8.95;3.03;;;;;;;5.07;83.25;92738.72;5063213;28;20099;-70
2023/11/29 07:07:41;;;;;;;7.28;3.50;;;;;;;5.12;82.32;92749.16;5063628;28;20080;-72
2023/11/29 07:10:07;;;;;;;5.90;3.42;;;;;;;5.15;81.86;92757.25;5062202;28;20245;-72
2023/11/29 07:12:34;;;;;;;7.55;3.15;;;;;;;5.22;81.60;92759.44;5063416;28;20025;-71
2023/11/29 07:14:59;;;;;;;8.52;4.25;;;;;;;5.28;81.28;92762.72;5063179;28;20027;-71
2023/11/29 07:17:25;;;;;;;6.13;3.22;;;;;;;5.37;79.94;92766.16;5063258;28;20255;-71
2023/11/29 07:19:51;;;;;;;4.50;2.83;;;;;;;5.38;79.47;92768.50;5063305;28;20025;-71
2023/11/29 07:22:17;;;;;;;6.38;3.70;;;;;;;5.45;79.94;92775.97;5062623;28;20056;-72
2023/11/29 07:24:43;;;;;;;17.70;4.05;;;;;;;5.47;78.59;92783.59;5063001;28;20327;-72
2023/11/29 07:27:09;;;;;;;4.72;2.90;;;;;;;5.36;78.55;92789.16;5063131;28;20369;-71
2023/11/29 07:29:34;;;;;;;5.75;3.08;;;;;;;5.34;79.37;92778.13;5063078;28;20021;-73
2023/11/29 07:32:00;;;;;;;4.88;2.97;;;;;;;5.35;79.56;92784.97;5062908;28;20032;-72
2023/11/29 07:34:25;;;;;;;5.13;3.35;;;;;;;5.45;79.42;92777.84;5062979;28;20016;-72
2023/11/29 07:36:52;;;;;;;4.78;3.22;;;;;;;5.53;79.71;92787.66;5062937;28;20028;-75
2023/11/29 07:39:21;;;;;;;7.32;3.80;;;;;;;5.62;80.03;92780.53;5063620;28;20318;-74
2023/11/29 07:41:47;;;;;;;7.75;4.28;;;;;;;5.71;80.11;92768.09;5063290;28;20091;-72
2023/11/29 07:44:14;;;;;;;9.15;4.32;;;;;;;5.78;79.08;92772.94;5063280;28;20092;-71
2023/11/29 07:46:39;;;;;;;9.82;4.82;;;;;;;5.87;78.61;92754.44;5061799;28;20326;-71
2023/11/29 07:49:05;;;;;;;10.13;4.07;;;;;;;6.01;79.03;92766.47;5062856;28;20020;-71
2023/11/29 07:51:30;;;;;;;8.23;4.68;;;;;;;6.19;78.51;92783.13;5062559;28;20084;-71
2023/11/29 07:53:55;;;;;;;8.13;4.32;;;;;;;6.30;78.84;92794.16;5062783;28;20104;-72
2023/11/29 07:56:21;;;;;;;11.65;5.55;;;;;;;6.38;77.58;92795.25;5062597;28;20052;-71
2023/11/29 07:58:47;;;;;;;7.95;4.38;;;;;;;6.48;77.24;92805.53;5062876;28;20021;-72
2023/11/29 08:01:13;;;;;;;6.95;4.13;;;;;;;6.58;76.70;92799.13;5062846;28;20020;-73
2023/11/29 08:03:39;;;;;;;6.55;3.33;;;;;;;6.65;76.19;92796.78;5062755;28;20273;-69
2023/11/29 08:06:06;;;;;;;5.22;3.25;;;;;;;6.77;75.92;92804.84;5062193;28;20028;-70
2023/11/29 08:08:33;;;;;;;6.93;3.35;;;;;;;6.86;75.83;92810.16;5060426;28;20094;-71
2023/11/29 08:10:59;;;;;;;10.15;3.88;;;;;;;6.97;75.38;92810.59;5061176;28;20044;-70
2023/11/29 08:13:24;;;;;;;9.25;3.80;;;;;;;7.04;73.22;92800.28;5060345;28;20333;-70
2023/11/29 08:15:50;;;;;;;5.95;2.97;;;;;;;7.12;71.40;92812.72;5061398;28;20028;-70
2023/11/29 08:18:15;;;;;;;6.68;3.05;;;;;;;7.15;71.17;92806.78;5061103;28;20025;-70
2023/11/29 08:20:41;;;;;;;5.15;3.20;;;;;;;7.20;70.89;92808.50;5061404;28;20092;-70
2023/11/29 08:23:07;;;;;;;6.10;3.15;;;;;;;7.27;71.21;92808.03;5061500;28;20091;-71
2023/11/29 08:25:32;;;;;;;9.43;3.75;;;;;;;7.33;71.23;92812.06;5062188;28;20021;-70
2023/11/29 08:27:57;;;;;;;6.90;3.28;;;;;;;7.37;67.74;92813.75;5061909;28;20017;-70
2023/11/29 08:30:23;;;;;;;7.20;3.65;;;;;;;7.29;66.37;92817.19;5062319;28;20083;-70
2023/11/29 08:32:48;;;;;;;4.72;3.33;;;;;;;7.15;67.15;92816.63;5062214;28;20045;-70
2023/11/29 08:35:14;;;;;;;7.60;4.05;;;;;;;7.10;68.48;92819.44;5065978;28;20033;-70
2023/11/29 08:37:40;;;;;;;5.95;3.55;;;;;;;6.98;68.16;92834.13;5066501;28;20040;-71
2023/11/29 08:40:06;;;;;;;8.02;3.85;;;;;;;6.93;67.37;92846.75;5066221;28;20063;-70
2023/11/29 08:42:32;;;;;;;7.97;3.38;;;;;;;6.92;67.98;92853.13;5066237;28;20051;-70
2023/11/29 08:44:58;;;;;;;5.57;3.75;;;;;;;6.78;68.98;92853.31;5065978;28;20097;-70
2023/11/29 08:47:24;;;;;;;8.13;3.97;;;;;;;6.75;69.93;92852.06;5066044;28;20021;-70
2023/11/29 08:49:50;;;;;;;7.70;4.05;;;;;;;6.70;70.78;92846.16;5065974;28;20024;-70
2023/11/29 08:52:15;;;;;;;9.82;4.18;;;;;;;6.79;69.22;92842.41;5065929;28;20055;-71
2023/11/29 08:54:41;;;;;;;8.20;4.47;;;;;;;6.84;68.28;92841.47;5066052;28;20041;-71
2023/11/29 08:57:06;;;;;;;6.68;3.88;;;;;;;6.72;68.30;92842.09;5065739;28;20327;-70
2023/11/29 08:59:32;;;;;;;7.82;4.38;;;;;;;6.60;68.81;92850.69;5065807;28;20353;-70
2023/11/29 09:01:57;;;;;;;6.90;4.18;;;;;;;6.44;68.99;92844.28;5065627;28;20028;-71
2023/11/29 09:04:22;;;;;;;7.68;3.70;;;;;;;6.44;69.37;92841.66;5065638;28;20096;-70
2023/11/29 09:06:48;;;;;;;10.75;4.35;;;;;;;6.30;69.50;92849.72;5065565;28;20090;-71
2023/11/29 09:09:14;;;;;;;12.32;4.38;;;;;;;6.23;69.89;92830.91;5065426;28;20137;-70
2023/11/29 09:11:39;;;;;;;8.40;4.47;;;;;;;6.23;70.09;92834.31;5065750;28;20029;-70
2023/11/29 09:14:05;;;;;;;13.07;5.32;;;;;;;6.29;70.08;92842.91;5064676;28;20369;-70
2023/11/29 09:16:30;;;;;;;8.35;4.65;;;;;;;6.21;69.97;92841.78;5065464;28;20048;-70
2023/11/29 09:18:55;;;;;;;7.72;4.30;;;;;;;6.27;71.04;92825.75;5064210;28;20020;-71
2023/11/29 09:21:21;;;;;;;12.25;4.82;;;;;;;6.33;70.69;92840.38;5065706;28;20100;-71
2023/11/29 09:23:46;;;;;;;10.05;4.70;;;;;;;6.34;69.85;92842.72;5065494;28;20028;-70
2023/11/29 09:26:13;;;;;;;7.97;4.50;;;;;;;6.31;69.90;92832.78;5065380;28;20285;-70
2023/11/29 09:28:39;;;;;;;8.30;4.80;;;;;;;6.14;70.56;92844.09;5065400;28;20032;-70
2023/11/29 09:31:05;;;;;;;10.02;5.45;;;;;;;5.99;71.22;92841.91;5065200;28;20108;-71
2023/11/29 09:33:32;;;;;;;11.25;4.72;;;;;;;5.93;72.00;92835.19;5065175;28;20091;-71
2023/11/29 09:35:58;;;;;;;12.55;5.00;;;;;;;5.93;72.67;92845.78;5065099;28;20086;-70
2023/11/29 09:38:23;;;;;;;11.65;5.75;;;;;;;5.98;72.06;92840.34;5065022;28;20029;-70
2023/11/29 09:40:49;;;;;;;11.50;4.57;;;;;;;5.91;72.91;92840.00;5065002;28;20029;-70
2023/11/29 09:43:14;;;;;;;30.27;9.20;;;;;;;5.83;72.97;92837.03;5065166;28;20067;-70
2023/11/29 09:45:40;;;;;;;16.48;5.93;;;;;;;5.88;72.32;92854.59;5064640;28;20048;-70
2023/11/29 09:48:05;;;;;;;9.88;5.10;;;;;;;5.87;72.32;92852.28;5064870;28;20099;-70
2023/11/29 09:50:32;;;;;;;12.95;5.65;;;;;;;5.86;73.01;92851.50;5064940;28;20262;-70
2023/11/29 09:52:58;;;;;;;11.40;6.05;;;;;;;5.90;73.61;92854.31;5064858;28;20025;-70
2023/11/29 09:55:27;;;;;;;12.32;6.10;;;;;;;5.96;73.91;92839.88;5063388;28;20041;-71
2023/11/29 09:57:53;;;;;;;11.35;6.38;;;;;;;6.07;75.27;92856.25;5064695;28;20341;-71
2023/11/29 10:00:19;;;;;;;10.35;5.20;;;;;;;6.17;73.98;92866.53;5064504;28;20017;-81
2023/11/29 10:02:44;;;;;;;9.13;5.47;;;;;;;6.24;73.26;92856.28;5064641;28;20017;-73
2023/11/29 10:05:14;;;;;;;9.45;4.60;;;;;;;6.21;71.95;92867.47;5065089;28;20027;-73
2023/11/29 10:07:41;;;;;;;10.45;5.38;;;;;;;6.17;72.43;92864.66;5065024;28;20013;-74
2023/11/29 10:10:07;;;;;;;7.97;4.47;;;;;;;6.17;72.92;92859.38;5064880;28;20023;-75
2023/11/29 10:12:37;;;;;;;8.68;4.82;;;;;;;6.10;72.40;92853.75;5064508;28;20016;-71
2023/11/29 10:15:03;;;;;;;7.22;4.00;;;;;;;6.10;73.97;92861.69;5064790;28;20382;-72
2023/11/29 10:17:29;;;;;;;8.93;4.63;;;;;;;6.07;73.70;92858.91;5064596;28;20035;-72
2023/11/29 10:19:57;;;;;;;8.52;4.68;;;;;;;6.08;74.22;92868.38;5064779;28;20025;-72
2023/11/29 10:22:24;;;;;;;8.32;4.60;;;;;;;6.11;74.64;92875.72;5064351;28;20032;-72
2023/11/29 10:24:49;;;;;;;14.30;5.25;;;;;;;6.13;74.74;92873.53;5063208;28;20020;-72
2023/11/29 10:27:18;;;;;;;18.35;5.00;;;;;;;6.15;75.40;92874.78;5064442;28;20218;-72
2023/11/29 10:29:44;;;;;;;7.22;4.63;;;;;;;6.14;75.61;92865.28;5064331;28;20031;-72
2023/11/29 10:32:11;;;;;;;10.10;4.22;;;;;;;6.12;75.24;92872.75;5064769;28;20146;-72
2023/11/29 10:34:37;;;;;;;10.02;4.95;;;;;;;6.15;75.65;92871.38;5064329;28;20021;-72
2023/11/29 10:37:03;;;;;;;14.20;5.32;;;;;;;6.14;76.45;92862.63;5064025;28;20021;-72
2023/11/29 10:39:30;;;;;;;8.52;4.22;;;;;;;6.16;77.02;92871.03;5063927;28;20310;-71
2023/11/29 10:41:58;;;;;;;8.63;4.85;;;;;;;6.13;76.70;92869.03;5063953;28;20031;-71
2023/11/29 10:44:34;;;;;;;11.30;4.38;;;;;;;6.18;77.13;92876.03;5064222;28;20040;-72
2023/11/29 10:47:12;;;;;;;10.43;5.22;;;;;;;6.18;77.84;92882.09;5064272;28;20063;-72
2023/11/29 10:49:45;;;;;;;9.45;4.93;;;;;;;6.15;77.33;92881.94;5064294;28;20052;-71
2023/11/29 10:52:11;;;;;;;14.32;7.68;;;;;;;6.09;77.48;92872.59;5064072;28;20254;-72
2023/11/29 10:54:36;;;;;;;14.32;8.27;;;;;;;6.10;77.15;92874.16;5063522;28;20024;-73
2023/11/29 10:57:06;;;;;;;16.77;7.85;;;;;;;6.14;77.61;92881.16;5062625;28;20315;-72
2023/11/29 10:59:34;;;;;;;16.83;7.32;;;;;;;6.19;76.91;92888.19;5063506;28;20021;-72
2023/11/29 11:02:00;;;;;;;15.20;7.88;;;;;;;6.19;76.98;92899.53;5063542;28;20316;-72
2023/11/29 11:04:33;;;;;;;19.13;8.02;;;;;;;6.03;78.50;92915.06;5063498;28;20035;-72
2023/11/29 11:07:00;;;;;;;13.48;6.30;;;;;;;5.86;79.04;92917.59;5063414;28;20291;-72
2023/11/29 11:09:37;;;;;;;16.17;7.25;;;;;;;5.73;79.88;92914.00;5063440;28;20025;-71
2023/11/29 11:12:05;;;;;;;14.60;7.97;;;;;;;5.67;80.65;92895.94;5063461;28;20257;-71
2023/11/29 11:14:50;;;;;;;16.98;8.27;;;;;;;5.64;80.56;92894.69;5063539;28;20017;-71
2023/11/29 11:17:18;;;;;;;16.80;8.93;;;;;;;5.64;81.15;92905.25;5063400;28;20092;-71
2023/11/29 11:19:45;;;;;;;17.83;9.07;;;;;;;5.58;81.64;92907.25;5063430;28;20033;-71
2023/11/29 11:22:31;;;;;;;20.75;7.70;;;;;;;5.32;81.88;92919.56;5063294;28;20021;-74
2023/11/29 11:25:06;;;;;;;17.10;9.60;;;;;;;5.18;83.35;92914.34;5063156;28;20056;-73
2023/11/29 11:27:31;;;;;;;15.25;8.05;;;;;;;5.00;83.96;92908.16;5063125;28;20027;-72
2023/11/29 11:29:57;;;;;;;11.93;6.13;;;;;;;4.95;84.81;92900.38;5063132;28;20101;-72
2023/11/29 11:32:37;;;;;;;15.95;7.15;;;;;;;5.06;84.93;92914.13;5063124;28;20615;-71
2023/11/29 11:35:18;;;;;;;14.88;6.47;;;;;;;5.03;85.56;92924.19;5063052;28;20027;-71